Station Historical Data
Daily Summary for February 17, 2012 Units:  English    Metric   Both
« Previous Day
Next Day »
Daily Weekly Monthly Yearly Custom
  High: Low: Average:
Temperature: 56.9 °F 38.2 °F 47.7 °F
Dew Point: 44.0 °F 32.1 °F 37.2 °F
Humidity: 92% 41% 69%
Wind Speed: 11.0mph 0.0mph 3.5mph
Wind Gust: 14.0mph - -
Wind- - East
Pressure: 30.20 in 30.07 in -
Precipitation: 0.00 in    
Historical Graphs
 
 
Tabular Data for February 17, 2012
Time Temperature Dew Point Pressure Wind Wind Speed Wind Gust Humidity Rainfall Rate (Hourly) Conditions
00:00 47.5 °F 43.8 °F 30.17 in North 3.0 mph 5.0 mph 87% 0.00 in
00:01 47.5 °F 43.8 °F 30.17 in North 2.0 mph 5.0 mph 87% 0.00 in
00:06 47.7 °F 44.0 °F 30.17 in NW 2.0 mph 4.0 mph 87% 0.00 in
00:11 47.7 °F 43.7 °F 30.17 in North 3.0 mph 4.0 mph 86% 0.00 in
00:16 47.9 °F 43.9 °F 30.17 in NNW 2.0 mph 4.0 mph 86% 0.00 in
00:21 47.9 °F 43.9 °F 30.17 in NNW 2.0 mph 4.0 mph 86% 0.00 in
00:26 47.9 °F 43.6 °F 30.16 in NNW 2.0 mph 6.0 mph 85% 0.00 in
00:31 48.0 °F 43.7 °F 30.17 in North 3.0 mph 5.0 mph 85% 0.00 in
00:36 48.1 °F 43.5 °F 30.16 in NNW 4.0 mph 6.0 mph 84% 0.00 in
00:41 48.1 °F 43.5 °F 30.16 in NNE 3.0 mph 6.0 mph 84% 0.00 in
00:46 48.2 °F 43.6 °F 30.16 in North 5.0 mph 5.0 mph 84% 0.00 in
00:51 48.2 °F 43.6 °F 30.16 in NNE 6.0 mph 6.0 mph 84% 0.00 in
00:56 48.3 °F 43.7 °F 30.15 in NNW 4.0 mph 6.0 mph 84% 0.00 in
01:01 48.3 °F 43.7 °F 30.16 in NW 2.0 mph 4.0 mph 84% 0.00 in
01:06 48.3 °F 43.7 °F 30.15 in NNE 3.0 mph 4.0 mph 84% 0.00 in
01:11 48.2 °F 43.6 °F 30.15 in North 6.0 mph 8.0 mph 84% 0.00 in
01:16 48.2 °F 43.3 °F 30.15 in NNE 2.0 mph 9.0 mph 83% 0.00 in
01:21 48.2 °F 43.6 °F 30.15 in North 1.0 mph 7.0 mph 84% 0.00 in
01:26 48.1 °F 43.5 °F 30.16 in NNE 5.0 mph 5.0 mph 84% 0.00 in
01:31 48.0 °F 43.7 °F 30.15 in NNW 3.0 mph 5.0 mph 85% 0.00 in
01:36 47.7 °F 43.7 °F 30.15 in NNE 6.0 mph 6.0 mph 86% 0.00 in
01:38 47.6 °F 43.6 °F 30.15 in North 4.0 mph 7.0 mph 86% 0.00 in
01:43 47.2 °F 43.5 °F 30.15 in NNW 3.0 mph 6.0 mph 87% 0.00 in
01:48 46.8 °F 43.1 °F 30.15 in NNE 3.0 mph 6.0 mph 87% 0.00 in
01:53 46.3 °F 42.7 °F 30.15 in North 3.0 mph 6.0 mph 87% 0.00 in
01:58 45.9 °F 42.5 °F 30.15 in NNW 3.0 mph 6.0 mph 88% 0.00 in
02:03 45.5 °F 42.2 °F 30.15 in NNW 3.0 mph 7.0 mph 88% 0.00 in
02:08 45.1 °F 41.5 °F 30.15 in North 6.0 mph 6.0 mph 87% 0.00 in
02:13 44.7 °F 41.4 °F 30.15 in North 5.0 mph 8.0 mph 88% 0.00 in
02:18 44.4 °F 41.1 °F 30.14 in NW 3.0 mph 6.0 mph 88% 0.00 in
02:23 44.0 °F 40.7 °F 30.15 in NNW 4.0 mph 5.0 mph 88% 0.00 in
02:28 43.7 °F 40.7 °F 30.14 in NNW 5.0 mph 7.0 mph 89% 0.00 in
02:33 43.5 °F 40.5 °F 30.14 in North 9.0 mph 9.0 mph 89% 0.00 in
02:39 43.3 °F 40.3 °F 30.15 in NNE 3.0 mph 7.0 mph 89% 0.00 in
02:44 43.1 °F 40.4 °F 30.14 in NNW 3.0 mph 6.0 mph 90% 0.00 in
02:49 42.9 °F 40.2 °F 30.14 in NNW 3.0 mph 5.0 mph 90% 0.00 in
02:54 42.8 °F 40.4 °F 30.14 in NNE 3.0 mph 6.0 mph 91% 0.00 in
02:59 42.7 °F 40.3 °F 30.14 in NNE 2.0 mph 4.0 mph 91% 0.00 in
03:04 42.5 °F 40.1 °F 30.14 in North 2.0 mph 4.0 mph 91% 0.00 in
03:09 42.3 °F 39.9 °F 30.14 in North 3.0 mph 4.0 mph 91% 0.00 in
03:14 42.0 °F 39.8 °F 30.14 in North 2.0 mph 4.0 mph 92% 0.00 in
03:19 41.7 °F 39.5 °F 30.14 in North 4.0 mph 5.0 mph 92% 0.00 in
03:24 41.7 °F 39.5 °F 30.14 in NNE 3.0 mph 4.0 mph 92% 0.00 in
03:29 41.5 °F 39.1 °F 30.14 in NNE 2.0 mph 5.0 mph 91% 0.00 in
03:34 41.5 °F 39.1 °F 30.13 in North 3.0 mph 4.0 mph 91% 0.00 in
03:39 41.6 °F 39.2 °F 30.14 in NNE 3.0 mph 4.0 mph 91% 0.00 in
03:44 41.5 °F 38.8 °F 30.14 in NNE 2.0 mph 2.0 mph 90% 0.00 in
03:49 41.5 °F 38.8 °F 30.14 in North 3.0 mph 4.0 mph 90% 0.00 in
03:54 41.3 °F 38.6 °F 30.14 in North 2.0 mph 4.0 mph 90% 0.00 in
03:59 41.3 °F 38.6 °F 30.14 in NNW 1.0 mph 7.0 mph 90% 0.00 in
04:04 41.3 °F 38.6 °F 30.15 in NNE 3.0 mph 4.0 mph 90% 0.00 in
04:09 41.2 °F 38.5 °F 30.15 in NNE 1.0 mph 4.0 mph 90% 0.00 in
04:14 41.2 °F 38.5 °F 30.15 in NNE 2.0 mph 3.0 mph 90% 0.00 in
04:19 41.1 °F 38.4 °F 30.15 in NNW 1.0 mph 3.0 mph 90% 0.00 in
04:24 40.9 °F 38.2 °F 30.16 in North 2.0 mph 2.0 mph 90% 0.00 in
04:29 40.7 °F 38.0 °F 30.16 in NNW 3.0 mph 3.0 mph 90% 0.00 in
04:34 40.5 °F 37.8 °F 30.16 in NNW 2.0 mph 3.0 mph 90% 0.00 in
04:39 40.3 °F 37.6 °F 30.16 in North 1.0 mph 2.0 mph 90% 0.00 in
04:44 40.1 °F 37.4 °F 30.16 in NNW 2.0 mph 3.0 mph 90% 0.00 in
04:49 39.9 °F 37.5 °F 30.16 in NNW 1.0 mph 3.0 mph 91% 0.00 in
04:54 39.7 °F 37.3 °F 30.16 in NNE 1.0 mph 3.0 mph 91% 0.00 in
04:59 39.7 °F 37.3 °F 30.16 in NNE 1.0 mph 2.0 mph 91% 0.00 in
05:04 39.6 °F 37.2 °F 30.16 in NNE 2.0 mph 2.0 mph 91% 0.00 in
05:09 39.7 °F 37.3 °F 30.16 in NNE 1.0 mph 2.0 mph 91% 0.00 in
05:14 39.6 °F 37.2 °F 30.16 in North 1.0 mph 3.0 mph 91% 0.00 in
05:19 39.5 °F 37.1 °F 30.16 in NNW 1.0 mph 2.0 mph 91% 0.00 in
05:24 39.4 °F 37.0 °F 30.17 in North 1.0 mph 3.0 mph 91% 0.00 in
05:29 39.2 °F 36.8 °F 30.17 in NNW 1.0 mph 3.0 mph 91% 0.00 in
05:34 39.1 °F 37.0 °F 30.18 in NNW 2.0 mph 3.0 mph 92% 0.00 in
05:40 39.1 °F 37.0 °F 30.18 in North 2.0 mph 3.0 mph 92% 0.00 in
05:45 38.9 °F 36.8 °F 30.18 in North 1.0 mph 2.0 mph 92% 0.00 in
05:50 38.8 °F 36.7 °F 30.17 in NNE 2.0 mph 4.0 mph 92% 0.00 in
05:55 38.8 °F 36.7 °F 30.17 in North 3.0 mph 5.0 mph 92% 0.00 in
06:00 38.9 °F 36.8 °F 30.17 in NNE 2.0 mph 4.0 mph 92% 0.00 in
06:05 39.1 °F 37.0 °F 30.17 in NNE 2.0 mph 6.0 mph 92% 0.00 in
06:10 39.1 °F 36.7 °F 30.17 in NNE 3.0 mph 3.0 mph 91% 0.00 in
06:15 39.0 °F 36.9 °F 30.17 in NNE 4.0 mph 5.0 mph 92% 0.00 in
06:20 38.9 °F 36.5 °F 30.18 in NNW 3.0 mph 4.0 mph 91% 0.00 in
06:25 38.8 °F 36.4 °F 30.17 in NNE 3.0 mph 3.0 mph 91% 0.00 in
06:30 38.6 °F 36.2 °F 30.17 in NE 3.0 mph 4.0 mph 91% 0.00 in
06:35 38.5 °F 36.1 °F 30.17 in NNE 4.0 mph 5.0 mph 91% 0.00 in
06:40 38.4 °F 36.0 °F 30.17 in North 2.0 mph 5.0 mph 91% 0.00 in
06:45 38.4 °F 36.3 °F 30.17 in NNE 6.0 mph 6.0 mph 92% 0.00 in
06:50 38.4 °F 36.0 °F 30.17 in NNE 4.0 mph 5.0 mph 91% 0.00 in
06:55 38.3 °F 35.9 °F 30.17 in NE 4.0 mph 4.0 mph 91% 0.00 in
07:00 38.3 °F 35.9 °F 30.17 in NNE 3.0 mph 6.0 mph 91% 0.00 in
07:05 38.2 °F 35.8 °F 30.17 in NNE 5.0 mph 7.0 mph 91% 0.00 in
07:10 38.2 °F 35.8 °F 30.17 in NNE 2.0 mph 6.0 mph 91% 0.00 in
07:15 38.3 °F 35.9 °F 30.17 in North 4.0 mph 6.0 mph 91% 0.00 in
07:20 38.2 °F 35.8 °F 30.16 in NNE 4.0 mph 6.0 mph 91% 0.00 in
07:25 38.3 °F 35.9 °F 30.16 in NNE 5.0 mph 7.0 mph 91% 0.00 in
07:30 38.4 °F 35.7 °F 30.16 in NNE 5.0 mph 8.0 mph 90% 0.00 in
07:35 38.6 °F 35.9 °F 30.16 in NNE 10.0 mph 10.0 mph 90% 0.00 in
07:40 38.7 °F 36.0 °F 30.16 in NE 6.0 mph 11.0 mph 90% 0.00 in
07:45 38.9 °F 35.9 °F 30.15 in NE 3.0 mph 12.0 mph 89% 0.00 in
07:50 39.1 °F 36.1 °F 30.15 in NE 5.0 mph 8.0 mph 89% 0.00 in
07:55 39.4 °F 36.2 °F 30.14 in NE 5.0 mph 13.0 mph 88% 0.00 in
08:00 39.7 °F 36.4 °F 30.14 in NE 11.0 mph 11.0 mph 88% 0.00 in
08:05 40.0 °F 36.5 °F 30.15 in NNE 5.0 mph 9.0 mph 87% 0.00 in
08:10 40.3 °F 36.5 °F 30.14 in NNE 10.0 mph 14.0 mph 86% 0.00 in
08:15 40.6 °F 36.8 °F 30.14 in NNE 9.0 mph 13.0 mph 86% 0.00 in
08:20 40.6 °F 36.5 °F 30.15 in NNE 10.0 mph 13.0 mph 85% 0.00 in
08:25 40.7 °F 36.5 °F 30.15 in NE 9.0 mph 12.0 mph 85% 0.00 in
08:30 40.8 °F 36.7 °F 30.16 in NE 10.0 mph 11.0 mph 85% 0.00 in
08:35 41.0 °F 36.5 °F 30.17 in NE 5.0 mph 13.0 mph 84% 0.00 in
08:40 41.1 °F 36.6 °F 30.18 in NNE 5.0 mph 12.0 mph 84% 0.00 in
08:45 41.1 °F 36.6 °F 30.18 in ENE 8.0 mph 8.0 mph 84% 0.00 in
08:51 41.2 °F 36.7 °F 30.18 in ENE 5.0 mph 8.0 mph 84% 0.00 in
08:55 41.2 °F 36.4 °F 30.18 in NE 5.0 mph 10.0 mph 83% 0.00 in
09:01 41.2 °F 36.4 °F 30.18 in NE 9.0 mph 11.0 mph 83% 0.00 in
09:06 41.1 °F 36.3 °F 30.18 in NNE 6.0 mph 10.0 mph 83% 0.00 in
09:11 41.1 °F 36.6 °F 30.18 in ENE 5.0 mph 9.0 mph 84% 0.00 in
09:16 41.0 °F 36.2 °F 30.18 in NE 7.0 mph 9.0 mph 83% 0.00 in
09:21 40.9 °F 36.5 °F 30.18 in NE 3.0 mph 10.0 mph 84% 0.00 in
09:26 40.9 °F 36.5 °F 30.19 in NNE 6.0 mph 8.0 mph 84% 0.00 in
09:31 41.0 °F 36.5 °F 30.19 in NE 8.0 mph 8.0 mph 84% 0.00 in
09:36 41.4 °F 36.6 °F 30.19 in NE 2.0 mph 6.0 mph 83% 0.00 in
09:41 42.3 °F 37.5 °F 30.20 in NE 7.0 mph 7.0 mph 83% 0.00 in
09:46 42.6 °F 37.2 °F 30.19 in NE 9.0 mph 12.0 mph 81% 0.00 in
09:51 43.0 °F 37.9 °F 30.19 in ENE 4.0 mph 6.0 mph 82% 0.00 in
09:56 43.3 °F 37.2 °F 30.19 in NE 10.0 mph 11.0 mph 79% 0.00 in
10:01 43.4 °F 37.0 °F 30.19 in NE 6.0 mph 11.0 mph 78% 0.00 in
10:06 43.8 °F 37.7 °F 30.20 in NNE 10.0 mph 10.0 mph 79% 0.00 in
10:11 44.1 °F 37.7 °F 30.20 in East 2.0 mph 10.0 mph 78% 0.00 in
10:16 44.8 °F 38.4 °F 30.20 in NE 7.0 mph 8.0 mph 78% 0.00 in
10:21 45.0 °F 37.9 °F 30.20 in East 6.0 mph 10.0 mph 76% 0.00 in
10:26 45.1 °F 37.7 °F 30.20 in ENE 5.0 mph 10.0 mph 75% 0.00 in
10:32 45.5 °F 38.0 °F 30.20 in NNE 3.0 mph 7.0 mph 75% 0.00 in
10:37 46.0 °F 38.2 °F 30.20 in NE 6.0 mph 10.0 mph 74% 0.00 in
10:42 45.9 °F 37.4 °F 30.19 in NNE 5.0 mph 10.0 mph 72% 0.00 in
10:47 46.4 °F 37.9 °F 30.19 in ENE 3.0 mph 11.0 mph 72% 0.00 in
10:52 46.7 °F 37.8 °F 30.19 in East 6.0 mph 9.0 mph 71% 0.00 in
10:57 46.9 °F 37.6 °F 30.19 in NNE 7.0 mph 9.0 mph 70% 0.00 in
11:02 47.1 °F 37.1 °F 30.19 in East 4.0 mph 10.0 mph 68% 0.00 in
11:07 47.6 °F 37.6 °F 30.18 in NE 6.0 mph 9.0 mph 68% 0.00 in
11:12 47.8 °F 37.0 °F 30.19 in East 3.0 mph 8.0 mph 66% 0.00 in
11:17 48.3 °F 37.9 °F 30.19 in East 6.0 mph 10.0 mph 67% 0.00 in
11:22 48.5 °F 38.4 °F 30.19 in East 4.0 mph 8.0 mph 68% 0.00 in
11:27 48.9 °F 37.7 °F 30.19 in NNE 8.0 mph 8.0 mph 65% 0.00 in
11:32 49.1 °F 38.2 °F 30.18 in NNE 6.0 mph 10.0 mph 66% 0.00 in
11:37 49.3 °F 37.2 °F 30.19 in NE 6.0 mph 8.0 mph 63% 0.00 in
11:42 49.8 °F 38.1 °F 30.18 in ENE 5.0 mph 6.0 mph 64% 0.00 in
11:47 50.1 °F 37.2 °F 30.18 in NE 7.0 mph 9.0 mph 61% 0.00 in
11:52 50.5 °F 37.6 °F 30.18 in NNE 4.0 mph 8.0 mph 61% 0.00 in
11:57 50.7 °F 37.3 °F 30.17 in East 4.0 mph 9.0 mph 60% 0.00 in
12:02 51.1 °F 38.5 °F 30.18 in NNW 4.0 mph 9.0 mph 62% 0.00 in
12:07 51.2 °F 37.8 °F 30.18 in NE 3.0 mph 7.0 mph 60% 0.00 in
12:12 51.5 °F 36.8 °F 30.17 in NE 2.0 mph 7.0 mph 57% 0.00 in
12:17 51.8 °F 37.1 °F 30.17 in NNE 4.0 mph 6.0 mph 57% 0.00 in
12:22 52.1 °F 37.8 °F 30.17 in NNE 5.0 mph 9.0 mph 58% 0.00 in
12:27 52.3 °F 38.0 °F 30.16 in NE 6.0 mph 9.0 mph 58% 0.00 in
12:32 52.6 °F 37.4 °F 30.17 in NNW 7.0 mph 9.0 mph 56% 0.00 in
12:37 52.7 °F 37.5 °F 30.16 in NNE 5.0 mph 9.0 mph 56% 0.00 in
12:42 53.1 °F 37.4 °F 30.16 in NNE 7.0 mph 10.0 mph 55% 0.00 in
12:47 53.6 °F 37.4 °F 30.17 in NNE 7.0 mph 11.0 mph 54% 0.00 in
12:53 53.5 °F 36.8 °F 30.17 in Calm   9.0 mph 53% 0.00 in
12:58 54.1 °F 38.3 °F 30.16 in NNE 6.0 mph 8.0 mph 55% 0.00 in
13:03 53.5 °F 35.8 °F 30.16 in NE 6.0 mph 7.0 mph 51% 0.00 in
13:08 53.6 °F 36.9 °F 30.16 in NNE 9.0 mph 9.0 mph 53% 0.00 in
13:13 54.3 °F 35.0 °F 30.15 in NE 6.0 mph 8.0 mph 48% 0.00 in
13:18 54.6 °F 35.8 °F 30.16 in East 3.0 mph 6.0 mph 49% 0.00 in
13:23 54.7 °F 34.3 °F 30.15 in NE 7.0 mph 11.0 mph 46% 0.00 in
13:28 54.9 °F 36.1 °F 30.15 in NNE 4.0 mph 8.0 mph 49% 0.00 in
13:33 55.6 °F 35.7 °F 30.14 in NNW 2.0 mph 6.0 mph 47% 0.00 in
13:38 55.6 °F 32.9 °F 30.14 in NE 7.0 mph 11.0 mph 42% 0.00 in
13:43 55.5 °F 34.0 °F 30.15 in NE 4.0 mph 10.0 mph 44% 0.00 in
13:48 56.5 °F 36.5 °F 30.14 in NE 3.0 mph 8.0 mph 47% 0.00 in
13:53 56.9 °F 38.0 °F 30.14 in NNE 7.0 mph 11.0 mph 49% 0.00 in
13:58 56.5 °F 37.1 °F 30.14 in NNE 5.0 mph 10.0 mph 48% 0.00 in
14:03 56.4 °F 37.5 °F 30.13 in North 5.0 mph 7.0 mph 49% 0.00 in
14:08 56.0 °F 36.6 °F 30.13 in North 1.0 mph 8.0 mph 48% 0.00 in
14:13 56.1 °F 37.2 °F 30.13 in NE 3.0 mph 3.0 mph 49% 0.00 in
14:18 55.7 °F 38.4 °F 30.13 in NNE 4.0 mph 6.0 mph 52% 0.00 in
14:23 55.3 °F 37.0 °F 30.13 in NE 2.0 mph 4.0 mph 50% 0.00 in
14:28 55.3 °F 37.5 °F 30.13 in NNE 4.0 mph 7.0 mph 51% 0.00 in
14:33 55.2 °F 37.4 °F 30.13 in NE 4.0 mph 5.0 mph 51% 0.00 in
14:38 55.2 °F 36.4 °F 30.12 in NNW 1.0 mph 4.0 mph 49% 0.00 in
14:43 55.4 °F 37.1 °F 30.12 in NNW 4.0 mph 8.0 mph 50% 0.00 in
14:48 55.5 °F 37.2 °F 30.12 in NNE 6.0 mph 6.0 mph 50% 0.00 in
14:53 55.7 °F 36.3 °F 30.12 in NNW 5.0 mph 6.0 mph 48% 0.00 in
14:58 55.7 °F 37.9 °F 30.12 in North 5.0 mph 6.0 mph 51% 0.00 in
15:03 55.7 °F 36.8 °F 30.12 in NNW 6.0 mph 6.0 mph 49% 0.00 in
15:08 55.7 °F 35.8 °F 30.11 in North 6.0 mph 8.0 mph 47% 0.00 in
15:13 55.8 °F 36.4 °F 30.12 in NNW 5.0 mph 7.0 mph 48% 0.00 in
15:19 55.8 °F 37.5 °F 30.12 in NNW 7.0 mph 7.0 mph 50% 0.00 in
15:24 55.7 °F 35.3 °F 30.12 in North 2.0 mph 7.0 mph 46% 0.00 in
15:29 55.7 °F 33.6 °F 30.12 in NNE 3.0 mph 6.0 mph 43% 0.00 in
15:34 55.7 °F 33.6 °F 30.12 in North 7.0 mph 7.0 mph 43% 0.00 in
15:39 55.6 °F 32.9 °F 30.12 in North 4.0 mph 6.0 mph 42% 0.00 in
15:44 55.5 °F 32.8 °F 30.12 in North 4.0 mph 5.0 mph 42% 0.00 in
15:49 55.5 °F 33.4 °F 30.12 in NNE 2.0 mph 6.0 mph 43% 0.00 in
15:54 55.4 °F 33.3 °F 30.11 in ENE 4.0 mph 6.0 mph 43% 0.00 in
15:59 55.4 °F 32.1 °F 30.11 in North 3.0 mph 6.0 mph 41% 0.00 in
16:04 55.4 °F 32.1 °F 30.11 in North 6.0 mph 7.0 mph 41% 0.00 in
16:09 55.4 °F 32.1 °F 30.12 in North 4.0 mph 6.0 mph 41% 0.00 in
16:14 55.6 °F 32.9 °F 30.12 in North 6.0 mph 6.0 mph 42% 0.00 in
16:19 55.6 °F 34.0 °F 30.11 in North 5.0 mph 5.0 mph 44% 0.00 in
16:24 55.6 °F 34.6 °F 30.11 in North 3.0 mph 5.0 mph 45% 0.00 in
16:29 55.4 °F 33.9 °F 30.10 in NNE 6.0 mph 8.0 mph 44% 0.00 in
16:34 55.4 °F 34.4 °F 30.10 in NNE 4.0 mph 7.0 mph 45% 0.00 in
16:39 55.5 °F 35.6 °F 30.10 in NNE 4.0 mph 6.0 mph 47% 0.00 in
16:44 55.5 °F 34.5 °F 30.11 in North 5.0 mph 8.0 mph 45% 0.00 in
16:50 55.6 °F 34.0 °F 30.11 in NNE 8.0 mph 8.0 mph 44% 0.00 in
16:55 55.5 °F 34.5 °F 30.11 in NNE 6.0 mph 6.0 mph 45% 0.00 in
17:00 55.4 °F 35.0 °F 30.11 in NNE 5.0 mph 7.0 mph 46% 0.00 in
17:05 55.4 °F 35.0 °F 30.11 in NNE 4.0 mph 6.0 mph 46% 0.00 in
17:10 55.3 °F 33.8 °F 30.11 in North 3.0 mph 5.0 mph 44% 0.00 in
17:15 55.2 °F 34.8 °F 30.10 in NNE 4.0 mph 5.0 mph 46% 0.00 in
17:20 55.2 °F 34.2 °F 30.11 in NE 2.0 mph 5.0 mph 45% 0.00 in
17:25 55.1 °F 33.0 °F 30.11 in NE 2.0 mph 4.0 mph 43% 0.00 in
17:30 55.1 °F 33.6 °F 30.11 in NNE 3.0 mph 3.0 mph 44% 0.00 in
17:35 55.0 °F 33.5 °F 30.10 in NNE 2.0 mph 3.0 mph 44% 0.00 in
17:40 54.9 °F 33.4 °F 30.10 in NNW 1.0 mph 4.0 mph 44% 0.00 in
17:45 54.7 °F 32.7 °F 30.10 in NNW 2.0 mph 5.0 mph 43% 0.00 in
17:50 54.6 °F 33.1 °F 30.11 in NNE 1.0 mph 2.0 mph 44% 0.00 in
17:55 54.6 °F 33.1 °F 30.10 in NNE 2.0 mph 2.0 mph 44% 0.00 in
18:00 54.5 °F 32.5 °F 30.10 in Calm   2.0 mph 43% 0.00 in
18:05 54.5 °F 33.0 °F 30.10 in NNE 1.0 mph 1.0 mph 44% 0.00 in
18:10 54.3 °F 32.9 °F 30.09 in NNE 1.0 mph 1.0 mph 44% 0.00 in
18:15 54.2 °F 32.8 °F 30.09 in NE 1.0 mph 2.0 mph 44% 0.00 in
18:20 54.1 °F 33.2 °F 30.09 in NE 1.0 mph 1.0 mph 45% 0.00 in
18:25 53.8 °F 33.0 °F 30.09 in Calm   1.0 mph 45% 0.00 in
18:30 53.5 °F 32.7 °F 30.10 in Calm     45% 0.00 in
18:35 53.2 °F 32.4 °F 30.10 in Calm     45% 0.00 in
18:40 53.1 °F 32.3 °F 30.10 in NNE 1.0 mph 1.0 mph 45% 0.00 in
18:45 53.2 °F 33.0 °F 30.10 in NNE 2.0 mph 2.0 mph 46% 0.00 in
18:51 52.9 °F 33.2 °F 30.09 in North 2.0 mph 3.0 mph 47% 0.00 in
18:56 52.6 °F 34.0 °F 30.09 in NNE 2.0 mph 3.0 mph 49% 0.00 in
19:01 52.5 °F 33.4 °F 30.09 in NNE 1.0 mph 4.0 mph 48% 0.00 in
19:06 52.3 °F 33.7 °F 30.10 in NNE 2.0 mph 2.0 mph 49% 0.00 in
19:11 52.1 °F 33.0 °F 30.10 in NNE 3.0 mph 5.0 mph 48% 0.00 in
19:16 51.8 °F 35.2 °F 30.09 in North 3.0 mph 5.0 mph 53% 0.00 in
19:21 51.5 °F 35.4 °F 30.10 in NNE 1.0 mph 2.0 mph 54% 0.00 in
19:26 51.6 °F 35.5 °F 30.10 in NNE 2.0 mph 3.0 mph 54% 0.00 in
19:31 51.6 °F 36.0 °F 30.09 in NNE 2.0 mph 4.0 mph 55% 0.00 in
19:36 51.4 °F 36.2 °F 30.08 in NE 1.0 mph 4.0 mph 56% 0.00 in
19:41 51.2 °F 36.5 °F 30.08 in NE 2.0 mph 3.0 mph 57% 0.00 in
19:46 51.2 °F 36.5 °F 30.09 in NNE 2.0 mph 3.0 mph 57% 0.00 in
19:51 50.9 °F 36.2 °F 30.09 in NNW 3.0 mph 3.0 mph 57% 0.00 in
19:56 50.5 °F 36.7 °F 30.10 in NNW 2.0 mph 4.0 mph 59% 0.00 in
20:01 50.1 °F 36.8 °F 30.10 in North 2.0 mph 2.0 mph 60% 0.00 in
20:06 49.8 °F 36.9 °F 30.10 in North 1.0 mph 2.0 mph 61% 0.00 in
20:11 49.6 °F 36.7 °F 30.10 in North 1.0 mph 1.0 mph 61% 0.00 in
20:16 49.5 °F 36.6 °F 30.10 in North 2.0 mph 2.0 mph 61% 0.00 in
20:21 49.3 °F 36.8 °F 30.09 in North 2.0 mph 3.0 mph 62% 0.00 in
20:26 49.1 °F 36.7 °F 30.09 in NNE 2.0 mph 3.0 mph 62% 0.00 in
20:31 49.1 °F 36.7 °F 30.09 in NE 2.0 mph 3.0 mph 62% 0.00 in
20:36 49.1 °F 36.7 °F 30.09 in NNE 2.0 mph 3.0 mph 62% 0.00 in
20:41 49.2 °F 36.8 °F 30.09 in NE 3.0 mph 4.0 mph 62% 0.00 in
20:46 49.2 °F 36.8 °F 30.09 in NE 3.0 mph 3.0 mph 62% 0.00 in
20:51 49.3 °F 36.8 °F 30.08 in NE 3.0 mph 3.0 mph 62% 0.00 in
20:56 49.5 °F 37.0 °F 30.08 in NE 1.0 mph 3.0 mph 62% 0.00 in
21:01 49.5 °F 37.0 °F 30.08 in NE 1.0 mph 2.0 mph 62% 0.00 in
21:06 49.5 °F 37.0 °F 30.09 in Calm   2.0 mph 62% 0.00 in
21:11 49.4 °F 36.9 °F 30.09 in NE 1.0 mph 1.0 mph 62% 0.00 in
21:16 49.2 °F 36.8 °F 30.09 in Calm   1.0 mph 62% 0.00 in
21:21 49.0 °F 37.0 °F 30.09 in NE 2.0 mph 2.0 mph 63% 0.00 in
21:26 48.9 °F 36.9 °F 30.09 in NE 2.0 mph 2.0 mph 63% 0.00 in
21:31 48.7 °F 36.7 °F 30.09 in NNE 1.0 mph 2.0 mph 63% 0.00 in
21:37 48.5 °F 36.9 °F 30.09 in NNE 2.0 mph 2.0 mph 64% 0.00 in
21:42 48.4 °F 36.4 °F 30.09 in NNE 1.0 mph 2.0 mph 63% 0.00 in
21:47 48.4 °F 36.8 °F 30.09 in NE 2.0 mph 3.0 mph 64% 0.00 in
21:52 48.5 °F 36.9 °F 30.09 in NE 2.0 mph 2.0 mph 64% 0.00 in
21:57 48.7 °F 36.7 °F 30.09 in ENE 1.0 mph 2.0 mph 63% 0.00 in
22:02 49.0 °F 36.6 °F 30.09 in NNE 2.0 mph 3.0 mph 62% 0.00 in
22:07 48.9 °F 36.9 °F 30.09 in NNE 1.0 mph 2.0 mph 63% 0.00 in
22:12 48.5 °F 36.9 °F 30.09 in NNE 2.0 mph 2.0 mph 64% 0.00 in
22:17 48.4 °F 36.8 °F 30.08 in ENE 2.0 mph 3.0 mph 64% 0.00 in
22:22 48.7 °F 36.7 °F 30.08 in NE 3.0 mph 4.0 mph 63% 0.00 in
22:27 48.9 °F 36.9 °F 30.07 in NE 2.0 mph 4.0 mph 63% 0.00 in
22:32 48.9 °F 36.5 °F 30.07 in NE 4.0 mph 5.0 mph 62% 0.00 in
22:37 49.1 °F 36.7 °F 30.08 in NNE 3.0 mph 4.0 mph 62% 0.00 in
22:42 48.9 °F 36.9 °F 30.08 in NE 2.0 mph 2.0 mph 63% 0.00 in
22:47 48.7 °F 36.7 °F 30.08 in NE 2.0 mph 3.0 mph 63% 0.00 in
22:52 48.5 °F 36.5 °F 30.07 in NE 1.0 mph 3.0 mph 63% 0.00 in
22:57 48.5 °F 36.1 °F 30.07 in NE 3.0 mph 4.0 mph 62% 0.00 in
23:02 48.6 °F 36.2 °F 30.07 in NE 2.0 mph 3.0 mph 62% 0.00 in
23:07 48.4 °F 36.0 °F 30.07 in NE 1.0 mph 3.0 mph 62% 0.00 in
23:12 48.1 °F 36.1 °F 30.07 in Calm   1.0 mph 63% 0.00 in
23:17 48.0 °F 36.0 °F 30.08 in ENE 1.0 mph 2.0 mph 63% 0.00 in
23:22 48.0 °F 36.0 °F 30.08 in Calm     63% 0.00 in
23:27 47.8 °F 36.2 °F 30.08 in NNW 1.0 mph 1.0 mph 64% 0.00 in
23:32 47.6 °F 36.0 °F 30.08 in NNW 1.0 mph 1.0 mph 64% 0.00 in
23:37 47.3 °F 36.2 °F 30.08 in North 1.0 mph 2.0 mph 65% 0.00 in
23:42 47.0 °F 35.9 °F 30.08 in North 1.0 mph 1.0 mph 65% 0.00 in
23:47 46.8 °F 36.0 °F 30.08 in North 1.0 mph 2.0 mph 66% 0.00 in
23:52 46.5 °F 35.8 °F 30.08 in Calm   1.0 mph 66% 0.00 in
23:57 46.3 °F 36.0 °F 30.08 in NNE 1.0 mph 2.0 mph 67% 0.00 in
Compliments of Weather Underground